Time;durP1;ratioP1;P1;durP2;ratioP2;P2;SDS_P1;SDS_P2;PMS_P1;PMS_P2;Temp;Humidity;BMP_temperature;BMP_pressure;BME280_temperature;BME280_humidity;BME280_pressure;Samples;Min_cycle;Max_cycle;Signal;HPM_P1;HPM_P2
2021/06/22 00:01:04;;;;;;;12.27;8.38;;;11.40;99.90;;;;;;5091240;28;20036;-74
2021/06/22 00:03:30;;;;;;;12.73;8.63;;;11.40;99.90;;;;;;5092681;28;20036;-74
2021/06/22 00:05:56;;;;;;;14.77;8.20;;;11.50;99.90;;;;;;5084088;28;20041;-74
2021/06/22 00:08:22;;;;;;;11.30;7.95;;;11.40;99.90;;;;;;5072621;28;20036;-74
2021/06/22 00:10:48;;;;;;;10.05;8.15;;;11.40;99.90;;;;;;5072539;28;20032;-74
2021/06/22 00:13:14;;;;;;;11.18;8.30;;;11.40;99.90;;;;;;5076667;28;20066;-74
2021/06/22 00:15:39;;;;;;;10.93;7.90;;;11.40;99.90;;;;;;5074543;28;20036;-74
2021/06/22 00:18:05;;;;;;;12.02;7.88;;;11.40;99.90;;;;;;5092662;28;20454;-74
2021/06/22 00:20:31;;;;;;;13.40;7.50;;;11.40;99.90;;;;;;5091519;28;20040;-74
2021/06/22 00:22:56;;;;;;;13.25;8.45;;;11.40;99.90;;;;;;5092651;28;20043;-74
2021/06/22 00:25:23;;;;;;;10.35;8.05;;;11.40;99.90;;;;;;5092541;28;20105;-74
2021/06/22 00:27:51;;;;;;;11.95;7.97;;;11.50;99.90;;;;;;5074528;28;20048;-74
2021/06/22 00:30:18;;;;;;;12.60;9.30;;;11.50;99.90;;;;;;5092619;28;20040;-73
2021/06/22 00:32:44;;;;;;;11.18;8.50;;;11.60;99.90;;;;;;5092360;28;20040;-73
2021/06/22 00:35:11;;;;;;;9.55;7.45;;;11.60;99.90;;;;;;5072077;28;20043;-74
2021/06/22 00:37:38;;;;;;;15.63;8.15;;;11.70;99.90;;;;;;5087983;28;20036;-73
2021/06/22 00:40:04;;;;;;;13.00;7.65;;;11.70;99.90;;;;;;5096132;28;20040;-75
2021/06/22 00:42:31;;;;;;;15.77;8.98;;;11.80;99.90;;;;;;5090719;28;20032;-74
2021/06/22 00:44:58;;;;;;;11.00;7.97;;;11.80;99.90;;;;;;5104824;28;20115;-74
2021/06/22 00:47:25;;;;;;;12.00;8.15;;;11.80;99.90;;;;;;5101743;28;20048;-74
2021/06/22 00:49:51;;;;;;;16.25;8.25;;;11.90;99.90;;;;;;5074060;28;20417;-74
2021/06/22 00:52:28;;;;;;;11.88;7.50;;;11.90;99.90;;;;;;5084929;28;20036;-74
2021/06/22 00:54:56;;;;;;;11.02;7.82;;;12.00;99.90;;;;;;5072130;28;20039;-74
2021/06/22 00:57:23;;;;;;;11.82;7.63;;;12.00;99.90;;;;;;5077857;28;20131;-74
2021/06/22 00:59:49;;;;;;;13.77;7.68;;;12.00;99.90;;;;;;5091855;28;20090;-74
2021/06/22 01:02:16;;;;;;;10.80;7.53;;;12.00;99.90;;;;;;5088335;28;20032;-74
2021/06/22 01:04:42;;;;;;;10.20;7.72;;;12.10;99.90;;;;;;5091743;28;20063;-73
2021/06/22 01:07:11;;;;;;;12.00;7.38;;;12.10;99.90;;;;;;5092013;28;20044;-73
2021/06/22 01:09:38;;;;;;;11.90;7.50;;;12.10;99.90;;;;;;5092115;28;20374;-74
2021/06/22 01:12:06;;;;;;;13.18;7.65;;;12.10;99.90;;;;;;5091203;28;20596;-74
2021/06/22 01:14:32;;;;;;;13.43;7.40;;;12.10;99.90;;;;;;5092214;28;20032;-74
2021/06/22 01:16:58;;;;;;;11.75;7.80;;;12.10;99.90;;;;;;5093812;28;20161;-74
2021/06/22 01:19:24;;;;;;;8.25;7.22;;;12.20;99.90;;;;;;5093710;28;20401;-74
2021/06/22 01:21:51;;;;;;;11.18;7.95;;;12.20;99.90;;;;;;5091094;28;20032;-75
2021/06/22 01:24:18;;;;;;;12.68;6.90;;;12.20;99.90;;;;;;5095392;28;20044;-74
2021/06/22 01:26:57;;;;;;;9.05;6.88;;;12.20;99.90;;;;;;5095412;28;20473;-74
2021/06/22 01:29:23;;;;;;;11.30;6.95;;;12.30;99.90;;;;;;5077360;28;20036;-74
2021/06/22 01:31:53;;;;;;;10.88;7.45;;;12.20;99.90;;;;;;5076967;28;20040;-74
2021/06/22 01:34:29;;;;;;;11.73;7.50;;;12.20;99.90;;;;;;5092394;28;20036;-74
2021/06/22 01:36:56;;;;;;;12.18;7.13;;;12.30;99.90;;;;;;5092529;28;20032;-74
2021/06/22 01:39:22;;;;;;;12.80;7.00;;;12.30;99.90;;;;;;5101225;28;20039;-74
2021/06/22 01:41:48;;;;;;;8.07;6.28;;;12.30;99.90;;;;;;5089647;28;20035;-74
2021/06/22 01:44:14;;;;;;;10.25;6.53;;;12.30;99.90;;;;;;5077083;28;20488;-74
2021/06/22 01:46:39;;;;;;;8.52;6.53;;;12.30;99.90;;;;;;5077259;28;20036;-74
2021/06/22 01:49:05;;;;;;;11.52;6.43;;;12.40;99.90;;;;;;5095043;28;20458;-74
2021/06/22 01:51:31;;;;;;;10.80;6.85;;;12.30;99.90;;;;;;5093855;28;20111;-74
2021/06/22 01:53:59;;;;;;;11.52;7.60;;;12.30;99.90;;;;;;5057073;28;20036;-74
2021/06/22 01:56:27;;;;;;;12.60;7.38;;;12.20;99.90;;;;;;5074541;28;20053;-74
2021/06/22 01:58:53;;;;;;;14.75;7.88;;;12.10;99.90;;;;;;5082339;28;20040;-74
2021/06/22 02:01:19;;;;;;;12.43;8.13;;;12.10;99.90;;;;;;5094859;28;20040;-74
2021/06/22 02:03:46;;;;;;;13.40;7.78;;;12.00;99.90;;;;;;5078382;28;20569;-74
2021/06/22 02:06:11;;;;;;;12.18;9.57;;;12.00;99.90;;;;;;5074487;28;20119;-73
2021/06/22 02:08:38;;;;;;;14.38;8.68;;;11.80;99.90;;;;;;5074709;28;20111;-74
2021/06/22 02:11:04;;;;;;;15.07;8.95;;;11.80;99.90;;;;;;5088790;28;20043;-74
2021/06/22 02:13:30;;;;;;;13.70;9.55;;;11.70;99.90;;;;;;5094652;28;20032;-74
2021/06/22 02:15:56;;;;;;;11.77;8.98;;;11.70;99.90;;;;;;5087752;28;20481;-73
2021/06/22 02:18:22;;;;;;;13.75;10.25;;;11.60;99.90;;;;;;5094635;28;20119;-73
2021/06/22 02:20:48;;;;;;;12.65;9.40;;;11.60;99.90;;;;;;5094554;28;20067;-74
2021/06/22 02:23:14;;;;;;;13.90;9.48;;;11.50;99.90;;;;;;5094630;28;20030;-74
2021/06/22 02:25:40;;;;;;;20.75;11.00;;;11.40;99.90;;;;;;5094316;28;20102;-74
2021/06/22 02:28:19;;;;;;;16.45;11.00;;;11.40;99.90;;;;;;5093556;28;20485;-74
2021/06/22 02:30:45;;;;;;;16.75;11.48;;;11.30;99.90;;;;;;5072143;28;20032;-74
2021/06/22 02:33:12;;;;;;;17.00;12.63;;;11.30;99.90;;;;;;5094316;28;20105;-74
2021/06/22 02:35:38;;;;;;;17.58;12.13;;;11.30;99.90;;;;;;5088154;28;20320;-74
2021/06/22 02:38:04;;;;;;;18.13;12.00;;;11.30;99.90;;;;;;5072587;28;20040;-74
2021/06/22 02:40:30;;;;;;;18.75;12.93;;;11.30;99.90;;;;;;5093889;28;20431;-73
2021/06/22 02:42:56;;;;;;;17.30;13.18;;;11.20;99.90;;;;;;5076002;28;20492;-74
2021/06/22 02:45:22;;;;;;;20.25;13.50;;;11.20;99.90;;;;;;5093974;28;20032;-74
2021/06/22 02:47:48;;;;;;;17.10;13.45;;;11.10;99.90;;;;;;5093371;28;20048;-74
2021/06/22 02:50:15;;;;;;;17.42;12.98;;;11.10;99.90;;;;;;5093939;28;20047;-74
2021/06/22 02:52:42;;;;;;;17.67;13.85;;;11.10;99.90;;;;;;5083183;28;20060;-73
2021/06/22 02:55:18;;;;;;;21.20;13.18;;;11.10;99.90;;;;;;5073620;28;20037;-73
2021/06/22 02:57:49;;;;;;;18.45;12.77;;;11.00;99.90;;;;;;5073612;28;20131;-73
2021/06/22 03:00:16;;;;;;;21.13;14.07;;;11.00;99.90;;;;;;5073480;28;20457;-74
2021/06/22 03:02:42;;;;;;;26.67;14.00;;;11.00;99.90;;;;;;5076323;28;20047;-73
2021/06/22 03:05:09;;;;;;;21.48;14.75;;;11.00;99.90;;;;;;5093177;28;20492;-74
2021/06/22 03:07:35;;;;;;;19.25;15.02;;;11.00;99.90;;;;;;5093671;28;20044;-73
2021/06/22 03:10:01;;;;;;;21.65;15.07;;;11.00;99.90;;;;;;5093155;28;20077;-73
2021/06/22 03:12:27;;;;;;;23.88;15.52;;;10.90;99.90;;;;;;5075439;28;20048;-74
2021/06/22 03:14:52;;;;;;;21.88;15.63;;;10.90;99.90;;;;;;5093185;28;20433;-74
2021/06/22 03:17:18;;;;;;;20.25;14.15;;;10.90;99.90;;;;;;5093160;28;20036;-73
2021/06/22 03:19:43;;;;;;;22.75;15.52;;;10.90;99.90;;;;;;5091682;28;20036;-73
2021/06/22 03:22:09;;;;;;;24.17;16.13;;;10.80;99.90;;;;;;5092788;28;20062;-74
2021/06/22 03:24:35;;;;;;;18.92;15.95;;;10.80;99.90;;;;;;5092616;28;20048;-73
2021/06/22 03:27:00;;;;;;;23.23;16.30;;;10.80;99.90;;;;;;5092796;28;20051;-74
2021/06/22 03:29:26;;;;;;;21.23;15.52;;;10.80;99.90;;;;;;5092655;28;20028;-74
2021/06/22 03:31:53;;;;;;;21.10;15.45;;;10.70;99.90;;;;;;5092096;28;20048;-74
2021/06/22 03:34:19;;;;;;;20.73;14.77;;;10.70;99.90;;;;;;5072404;28;20044;-73
2021/06/22 03:36:45;;;;;;;22.83;15.40;;;10.70;99.90;;;;;;5071330;28;20164;-74
2021/06/22 03:39:11;;;;;;;18.55;14.73;;;10.70;99.90;;;;;;5094344;28;20039;-74
2021/06/22 03:41:38;;;;;;;19.55;15.27;;;10.70;99.90;;;;;;5091031;28;20467;-74
2021/06/22 03:44:04;;;;;;;17.98;14.35;;;10.60;99.90;;;;;;5081239;28;20036;-74
2021/06/22 03:46:30;;;;;;;24.60;15.52;;;10.60;99.90;;;;;;5092427;28;20036;-74
2021/06/22 03:48:56;;;;;;;23.45;16.20;;;10.60;99.90;;;;;;5073742;28;20086;-74
2021/06/22 03:51:22;;;;;;;17.77;14.82;;;10.60;99.90;;;;;;5072807;28;20495;-74
2021/06/22 03:53:48;;;;;;;21.08;14.93;;;10.70;99.90;;;;;;5073393;28;20468;-74
2021/06/22 03:56:14;;;;;;;16.50;13.18;;;10.70;99.90;;;;;;5092019;28;20044;-74
2021/06/22 03:58:41;;;;;;;17.27;13.52;;;10.70;99.90;;;;;;5092346;28;20040;-74
2021/06/22 04:01:07;;;;;;;19.65;14.07;;;10.70;99.90;;;;;;5092615;28;20032;-74
2021/06/22 04:03:33;;;;;;;18.88;13.88;;;10.70;99.90;;;;;;5092223;28;20120;-74
2021/06/22 04:06:14;;;;;;;18.65;14.25;;;10.70;99.90;;;;;;5076668;28;20512;-74
2021/06/22 04:08:41;;;;;;;19.40;15.02;;;10.70;99.90;;;;;;5076333;28;20036;-74
2021/06/22 04:11:07;;;;;;;19.23;14.82;;;10.70;99.90;;;;;;5092235;28;20047;-73
2021/06/22 04:13:33;;;;;;;21.08;14.73;;;10.80;99.90;;;;;;5092557;28;20382;-74
2021/06/22 04:15:58;;;;;;;19.85;14.15;;;10.80;99.90;;;;;;5074177;28;20048;-74
2021/06/22 04:18:24;;;;;;;16.77;13.90;;;10.80;99.90;;;;;;5092365;28;20093;-73
2021/06/22 04:20:50;;;;;;;18.40;14.43;;;10.80;99.90;;;;;;5092423;28;20028;-73
2021/06/22 04:23:16;;;;;;;18.48;12.65;;;10.90;99.90;;;;;;5073304;28;20713;-74
2021/06/22 04:25:42;;;;;;;22.45;14.02;;;10.90;99.90;;;;;;5091277;28;20048;-74
2021/06/22 04:28:08;;;;;;;15.98;14.13;;;10.90;99.90;;;;;;5073962;28;20051;-73
2021/06/22 04:30:35;;;;;;;18.73;13.57;;;10.90;99.90;;;;;;5092453;28;20040;-73
2021/06/22 04:33:04;;;;;;;19.42;13.48;;;11.00;99.90;;;;;;5092085;28;20040;-74
2021/06/22 04:35:31;;;;;;;17.67;13.38;;;10.90;99.90;;;;;;5092272;28;20405;-73
2021/06/22 04:38:05;;;;;;;17.92;13.43;;;11.00;99.90;;;;;;5091734;28;20105;-74
2021/06/22 04:40:32;;;;;;;18.85;14.20;;;10.90;99.90;;;;;;5092056;28;20032;-73
2021/06/22 04:42:59;;;;;;;17.63;13.57;;;11.00;99.90;;;;;;5091067;28;20066;-74
2021/06/22 04:45:24;;;;;;;17.98;15.15;;;11.00;99.90;;;;;;5091816;28;20234;-73
2021/06/22 04:47:50;;;;;;;17.45;14.65;;;11.00;99.90;;;;;;5091921;28;20521;-74
2021/06/22 04:50:16;;;;;;;20.85;15.07;;;11.00;99.90;;;;;;5074084;28;20454;-74
2021/06/22 04:52:41;;;;;;;20.90;14.98;;;11.10;99.90;;;;;;5095344;28;20032;-74
2021/06/22 04:55:12;;;;;;;19.17;14.45;;;11.10;99.90;;;;;;5078036;28;20039;-73
2021/06/22 04:57:40;;;;;;;18.97;15.73;;;11.20;99.90;;;;;;5077555;28;20032;-73
2021/06/22 05:00:07;;;;;;;19.20;15.18;;;11.30;99.90;;;;;;5095233;28;20071;-74
2021/06/22 05:02:33;;;;;;;21.83;15.85;;;11.40;99.90;;;;;;5077166;28;20355;-73
2021/06/22 05:04:59;;;;;;;21.42;15.48;;;11.50;99.90;;;;;;5094853;28;20036;-74
2021/06/22 05:07:25;;;;;;;17.95;15.50;;;11.60;99.90;;;;;;5096031;28;20529;-74
2021/06/22 05:09:50;;;;;;;25.15;16.48;;;11.70;99.90;;;;;;5096130;28;20043;-74
2021/06/22 05:12:16;;;;;;;18.48;15.60;;;11.80;99.90;;;;;;5077569;28;20488;-73
2021/06/22 05:14:42;;;;;;;20.67;15.52;;;11.80;99.90;;;;;;5090415;28;20088;-73
2021/06/22 05:17:08;;;;;;;19.55;15.48;;;11.90;99.90;;;;;;5095797;28;20527;-74
2021/06/22 05:19:33;;;;;;;20.58;14.65;;;12.00;99.90;;;;;;5093753;28;20046;-74
2021/06/22 05:21:59;;;;;;;19.75;14.63;;;12.10;99.90;;;;;;5095652;28;20115;-74
2021/06/22 05:24:24;;;;;;;18.58;14.63;;;12.20;99.90;;;;;;5077128;28;20382;-74
2021/06/22 05:26:50;;;;;;;19.75;15.07;;;12.30;99.90;;;;;;5077202;28;20115;-73
2021/06/22 05:29:16;;;;;;;17.65;14.32;;;12.50;99.90;;;;;;5095516;28;20111;-74
2021/06/22 05:31:41;;;;;;;20.67;14.90;;;12.60;99.90;;;;;;5095306;28;20036;-74
2021/06/22 05:34:14;;;;;;;20.50;14.95;;;12.70;99.90;;;;;;5095445;28;20044;-74
2021/06/22 05:36:40;;;;;;;20.30;14.88;;;12.80;99.90;;;;;;5075866;28;20165;-74
2021/06/22 05:39:06;;;;;;;17.83;13.30;;;12.90;99.90;;;;;;5094511;28;20045;-73
2021/06/22 05:41:32;;;;;;;19.42;15.27;;;12.90;99.90;;;;;;5094406;28;20040;-74
2021/06/22 05:43:59;;;;;;;21.00;13.63;;;13.00;99.90;;;;;;5094923;28;20419;-73
2021/06/22 05:46:24;;;;;;;16.00;13.02;;;13.20;99.90;;;;;;5077885;28;20036;-74
2021/06/22 05:48:50;;;;;;;17.77;13.32;;;13.60;99.90;;;;;;5076703;28;20455;-73
2021/06/22 05:51:16;;;;;;;14.07;12.20;;;14.50;99.90;;;;;;5077607;28;20040;-75
2021/06/22 05:53:42;;;;;;;16.02;11.80;;;15.40;99.90;;;;;;5085237;28;20088;-75
2021/06/22 05:56:10;;;;;;;16.55;11.80;;;16.00;99.90;;;;;;5094774;28;20097;-75
2021/06/22 05:58:36;;;;;;;17.80;12.25;;;16.50;99.90;;;;;;5094634;28;20071;-74
2021/06/22 06:01:02;;;;;;;15.48;12.20;;;17.10;99.90;;;;;;5093083;28;20056;-75
2021/06/22 06:03:28;;;;;;;13.45;10.80;;;18.00;99.90;;;;;;5073633;28;20044;-74
2021/06/22 06:05:54;;;;;;;12.45;10.55;;;19.00;99.90;;;;;;5085903;28;20092;-74
2021/06/22 06:08:19;;;;;;;10.32;9.32;;;19.90;99.90;;;;;;5093067;28;20398;-75
2021/06/22 06:10:45;;;;;;;13.05;9.25;;;20.50;99.90;;;;;;5093339;28;20043;-74
2021/06/22 06:13:11;;;;;;;11.68;9.13;;;21.00;99.90;;;;;;5079765;28;20041;-75
2021/06/22 06:15:36;;;;;;;12.32;8.77;;;21.00;90.00;;;;;;5093263;28;20043;-74
2021/06/22 06:18:03;;;;;;;10.25;8.13;;;21.50;98.90;;;;;;5075658;28;20067;-74
2021/06/22 06:20:28;;;;;;;10.07;7.70;;;22.40;98.90;;;;;;5093327;28;20047;-74
2021/06/22 06:22:55;;;;;;;13.68;8.00;;;22.70;92.90;;;;;;5093960;28;20032;-74
2021/06/22 06:25:21;;;;;;;9.52;7.45;;;23.40;96.40;;;;;;5074898;28;20048;-75
2021/06/22 06:27:56;;;;;;;11.98;7.32;;;23.60;93.00;;;;;;5074183;28;20059;-74
2021/06/22 06:30:35;;;;;;;9.68;6.72;;;24.00;94.20;;;;;;5093330;28;20047;-75
2021/06/22 06:33:00;;;;;;;10.10;6.63;;;23.90;92.80;;;;;;5093307;28;20043;-75
2021/06/22 06:35:26;;;;;;;10.93;7.40;;;23.90;91.10;;;;;;5093103;28;20036;-75
2021/06/22 06:37:52;;;;;;;7.90;6.88;;;24.50;94.80;;;;;;5068219;28;20122;-75
2021/06/22 06:40:19;;;;;;;10.85;6.32;;;23.70;76.80;;;;;;5074300;28;20044;-74
2021/06/22 06:42:45;;;;;;;9.90;5.72;;;23.60;92.40;;;;;;5088592;28;20044;-75
2021/06/22 06:45:13;;;;;;;11.23;5.43;;;24.30;92.20;;;;;;5073179;28;20044;-75
2021/06/22 06:47:38;;;;;;;11.95;6.50;;;24.10;92.00;;;;;;5092928;28;20069;-75
2021/06/22 06:50:05;;;;;;;11.10;5.78;;;24.40;93.40;;;;;;5092764;28;20036;-75
2021/06/22 06:52:32;;;;;;;7.93;5.25;;;24.80;93.10;;;;;;5092828;28;20032;-75
2021/06/22 06:54:57;;;;;;;11.38;5.55;;;25.10;93.20;;;;;;5090862;28;20113;-75
2021/06/22 06:57:23;;;;;;;10.00;5.80;;;25.00;86.30;;;;;;5065455;28;20662;-75
2021/06/22 06:59:49;;;;;;;9.13;5.15;;;25.30;93.10;;;;;;5054292;28;20039;-76
2021/06/22 07:02:14;;;;;;;11.43;4.53;;;25.60;89.70;;;;;;5089554;28;20032;-74
2021/06/22 07:04:40;;;;;;;6.57;3.90;;;25.50;84.20;;;;;;5091124;28;20043;-74
2021/06/22 07:07:06;;;;;;;6.40;3.70;;;25.10;86.20;;;;;;5092697;28;20067;-74
2021/06/22 07:09:33;;;;;;;9.20;3.10;;;25.40;91.20;;;;;;5092469;28;20036;-74
2021/06/22 07:11:59;;;;;;;7.90;4.03;;;23.20;71.40;;;;;;5088707;28;20067;-75
2021/06/22 07:14:35;;;;;;;7.60;4.53;;;23.00;88.10;;;;;;5072064;28;20161;-74
2021/06/22 07:17:01;;;;;;;7.18;4.00;;;22.90;92.30;;;;;;5068639;28;20472;-75
2021/06/22 07:19:27;;;;;;;8.50;3.60;;;22.50;86.00;;;;;;5087491;28;20081;-75
2021/06/22 07:21:52;;;;;;;6.32;3.90;;;22.30;90.10;;;;;;5077645;28;20024;-75
2021/06/22 07:24:18;;;;;;;7.78;3.45;;;21.10;84.40;;;;;;5080625;28;20159;-76
2021/06/22 07:26:44;;;;;;;9.00;3.83;;;21.40;95.00;;;;;;5086197;28;20048;-75
2021/06/22 07:29:10;;;;;;;6.70;3.50;;;21.90;92.90;;;;;;5091540;28;20114;-75
2021/06/22 07:31:36;;;;;;;8.07;4.10;;;22.70;92.30;;;;;;5086699;28;20069;-75
2021/06/22 07:34:02;;;;;;;7.95;3.42;;;23.10;91.50;;;;;;5087295;28;20105;-76
2021/06/22 07:36:28;;;;;;;6.07;3.75;;;23.00;88.20;;;;;;5086441;28;20040;-75
2021/06/22 07:41:22;;;;;;;9.52;3.90;;;21.60;92.30;;;;;;5085824;28;20037;-72
2021/06/22 07:43:48;;;;;;;8.27;4.13;;;21.20;94.60;;;;;;5079968;28;20067;-72
2021/06/22 07:46:14;;;;;;;7.68;3.55;;;21.20;93.90;;;;;;5062677;28;20058;-73
2021/06/22 07:48:40;;;;;;;5.55;3.45;;;21.40;90.70;;;;;;5071999;28;20032;-74
2021/06/22 07:51:06;;;;;;;7.72;3.60;;;21.10;86.80;;;;;;5090377;28;20032;-73
2021/06/22 07:53:31;;;;;;;10.38;3.58;;;20.70;91.00;;;;;;5068211;28;20480;-73
2021/06/22 07:55:59;;;;;;;8.05;3.60;;;20.80;92.80;;;;;;5081759;28;20445;-74
2021/06/22 07:58:24;;;;;;;12.98;3.58;;;20.40;94.40;;;;;;5089433;28;20063;-73
2021/06/22 08:00:53;;;;;;;5.78;3.60;;;20.00;92.00;;;;;;5091014;28;20040;-73
2021/06/22 08:03:21;;;;;;;12.48;3.90;;;19.30;91.60;;;;;;5072563;28;20024;-75
2021/06/22 08:05:49;;;;;;;5.80;2.83;;;19.40;95.10;;;;;;5091107;28;20464;-74
2021/06/22 08:08:17;;;;;;;6.80;3.08;;;19.90;92.20;;;;;;5090718;28;20036;-75
2021/06/22 08:10:47;;;;;;;7.70;3.20;;;20.60;92.30;;;;;;5070783;28;20047;-74
2021/06/22 08:13:13;;;;;;;7.70;3.63;;;19.20;90.40;;;;;;5087905;28;20073;-75
2021/06/22 08:15:40;;;;;;;8.07;3.25;;;18.90;93.10;;;;;;5087681;28;20036;-76
2021/06/22 08:18:06;;;;;;;7.25;3.53;;;19.00;93.10;;;;;;5068775;28;20485;-73
2021/06/22 08:20:32;;;;;;;7.63;3.50;;;18.40;92.20;;;;;;5071370;28;20111;-74
2021/06/22 08:22:59;;;;;;;6.88;3.28;;;18.50;94.20;;;;;;5072406;28;20377;-74
2021/06/22 08:25:26;;;;;;;6.25;3.00;;;18.20;92.40;;;;;;5077018;28;20029;-75
2021/06/22 08:27:53;;;;;;;4.75;2.78;;;18.10;92.90;;;;;;5084087;28;20097;-75
2021/06/22 08:30:21;;;;;;;8.68;3.60;;;18.30;92.20;;;;;;5089420;28;20036;-74
2021/06/22 08:32:47;;;;;;;7.70;3.40;;;18.10;92.40;;;;;;5075582;28;20040;-75
2021/06/22 08:35:13;;;;;;;7.57;3.40;;;18.60;95.70;;;;;;5094864;28;20346;-74
2021/06/22 08:37:39;;;;;;;5.28;2.85;;;18.40;92.70;;;;;;5090668;28;20051;-75
2021/06/22 08:40:07;;;;;;;5.70;3.17;;;18.80;93.20;;;;;;5095349;28;20047;-74
2021/06/22 08:42:36;;;;;;;8.20;3.40;;;19.00;93.00;;;;;;5067669;28;20036;-75
2021/06/22 08:45:04;;;;;;;6.68;3.40;;;18.40;92.40;;;;;;5080581;28;20032;-74
2021/06/22 08:47:29;;;;;;;8.63;3.22;;;18.60;94.30;;;;;;5075009;28;20113;-74
2021/06/22 08:49:56;;;;;;;6.68;2.80;;;18.40;91.90;;;;;;5075916;28;20453;-74
2021/06/22 08:52:29;;;;;;;7.22;3.40;;;18.00;92.90;;;;;;5084385;28;20393;-73
2021/06/22 08:54:55;;;;;;;5.50;3.33;;;18.20;95.00;;;;;;5066745;28;20052;-74
2021/06/22 08:57:22;;;;;;;7.50;2.88;;;18.30;95.40;;;;;;5094156;28;20383;-74
2021/06/22 08:59:48;;;;;;;5.28;2.80;;;18.00;92.90;;;;;;5087196;28;20111;-74
2021/06/22 09:02:15;;;;;;;5.88;3.08;;;18.20;94.90;;;;;;5076949;28;20111;-76
2021/06/22 09:04:41;;;;;;;7.97;3.47;;;17.50;91.60;;;;;;5090433;28;20101;-75
2021/06/22 09:07:06;;;;;;;5.43;3.00;;;17.40;93.50;;;;;;5083799;28;20041;-75
2021/06/22 09:09:36;;;;;;;5.97;2.65;;;17.50;93.60;;;;;;5088216;28;20040;-74
2021/06/22 09:12:08;;;;;;;6.85;3.20;;;17.20;91.60;;;;;;5088372;28;20068;-75
2021/06/22 09:14:41;;;;;;;;;;;17.60;95.30;;;;;;5088539;28;20040;-75
2021/06/22 09:17:08;;;;;;;8.15;3.58;;;18.00;94.40;;;;;;5093942;28;19951;-74
2021/06/22 09:19:35;;;;;;;6.38;2.60;;;18.40;96.00;;;;;;5093449;28;20059;-74
2021/06/22 09:22:18;;;;;;;6.28;3.03;;;18.60;93.40;;;;;;5091568;28;20032;-75
2021/06/22 09:24:59;;;;;;;;;;;18.50;92.70;;;;;;5113069;28;20039;-74
2021/06/22 09:27:44;;;;;;;4.78;3.08;;;18.50;91.50;;;;;;5095669;28;20018;-75
2021/06/22 09:30:10;;;;;;;7.18;2.90;;;18.60;91.30;;;;;;5074052;28;20040;-74
2021/06/22 09:32:36;;;;;;;6.80;3.00;;;18.60;91.10;;;;;;5074081;28;20663;-74
2021/06/22 09:35:21;;;;;;;6.55;2.50;;;18.60;91.10;;;;;;5093743;28;20036;-74
2021/06/22 09:37:55;;;;;;;5.65;2.70;;;18.60;90.90;;;;;;5093225;28;20405;-74
2021/06/22 09:40:29;;;;;;;6.75;3.05;;;18.90;89.70;;;;;;5092514;28;20052;-74
2021/06/22 09:42:56;;;;;;;10.68;3.25;;;19.10;90.50;;;;;;5092674;28;20072;-74
2021/06/22 09:45:23;;;;;;;7.10;2.85;;;18.80;90.30;;;;;;5091141;28;20117;-74
2021/06/22 09:47:48;;;;;;;5.15;2.65;;;18.90;91.90;;;;;;5075598;28;20046;-75
2021/06/22 09:50:38;;;;;;;7.63;2.80;;;19.00;91.90;;;;;;5092205;28;20130;-74
2021/06/22 09:53:26;;;;;;;5.82;3.13;;;19.40;90.70;;;;;;5090166;28;20107;-74
2021/06/22 09:55:53;;;;;;;7.10;2.80;;;19.50;91.40;;;;;;5076238;28;20036;-74
2021/06/22 09:58:41;;;;;;;9.70;3.40;;;19.40;90.70;;;;;;5085586;28;20032;-74
2021/06/22 10:01:27;;;;;;;4.93;2.88;;;19.40;87.10;;;;;;5086778;28;20453;-74
2021/06/22 10:03:54;;;;;;;4.45;2.97;;;19.20;91.00;;;;;;5083029;28;20509;-74
2021/06/22 10:06:20;;;;;;;6.47;3.20;;;19.10;92.20;;;;;;5069813;28;20036;-74
2021/06/22 10:08:50;;;;;;;9.77;3.08;;;19.30;93.60;;;;;;5091566;28;20542;-73
2021/06/22 10:12:05;;;;;;;7.18;3.30;;;19.00;90.90;;;;;;5081845;28;20046;-74
2021/06/22 10:14:41;;;;;;;8.40;3.53;;;19.00;90.60;;;;;;5054411;28;21468;-74
2021/06/22 10:17:09;;;;;;;6.40;3.53;;;18.90;90.60;;;;;;5069989;28;20079;-74
2021/06/22 10:19:37;;;;;;;9.38;3.30;;;19.10;92.40;;;;;;5084722;28;20055;-74
2021/06/22 10:22:07;;;;;;;9.07;3.42;;;19.20;91.40;;;;;;5087036;28;20044;-74
2021/06/22 10:24:42;;;;;;;5.85;3.10;;;19.10;91.90;;;;;;5081558;28;20034;-74
2021/06/22 10:27:08;;;;;;;5.95;3.45;;;19.20;91.70;;;;;;5066434;28;20047;-74
2021/06/22 10:29:35;;;;;;;9.90;3.53;;;19.20;91.40;;;;;;5090118;28;20040;-74
2021/06/22 10:32:01;;;;;;;7.82;3.53;;;19.20;93.40;;;;;;5084425;28;20119;-73
2021/06/22 10:34:27;;;;;;;8.65;3.58;;;19.30;93.00;;;;;;5066810;28;20028;-73
2021/06/22 10:37:12;;;;;;;8.93;4.00;;;19.30;91.80;;;;;;5088839;28;20388;-74
2021/06/22 10:39:51;;;;;;;8.43;3.92;;;19.30;92.60;;;;;;5097792;28;20127;-74
2021/06/22 10:42:19;;;;;;;7.40;3.50;;;19.30;92.40;;;;;;5067104;28;20052;-74
2021/06/22 10:45:12;;;;;;;8.45;3.40;;;19.00;92.20;;;;;;5090796;28;20055;-74
2021/06/22 10:47:40;;;;;;;6.40;3.28;;;18.70;93.10;;;;;;5082573;28;20519;-74
2021/06/22 10:50:23;;;;;;;8.68;4.07;;;18.60;93.40;;;;;;5067106;28;20136;-73
2021/06/22 10:52:51;;;;;;;7.90;3.95;;;18.10;92.50;;;;;;5081878;28;20397;-73
2021/06/22 10:55:27;;;;;;;7.80;3.90;;;17.90;93.50;;;;;;5091438;28;20478;-74
2021/06/22 10:58:01;;;;;;;7.65;3.28;;;17.80;92.60;;;;;;5087450;28;20028;-74
2021/06/22 11:00:38;;;;;;;10.27;3.67;;;17.90;94.20;;;;;;5093627;28;20082;-73
2021/06/22 11:03:19;;;;;;;5.53;3.33;;;17.80;93.60;;;;;;5078144;28;20115;-74
2021/06/22 11:05:46;;;;;;;14.10;4.32;;;17.70;93.00;;;;;;5090509;28;20612;-73
2021/06/22 11:08:15;;;;;;;9.93;3.92;;;17.40;93.30;;;;;;5068338;28;20042;-74
2021/06/22 11:10:55;;;;;;;6.95;3.90;;;17.50;93.80;;;;;;5074877;28;20028;-73
2021/06/22 11:13:36;;;;;;;11.90;4.03;;;17.60;93.60;;;;;;5077038;28;20044;-73
2021/06/22 11:16:07;;;;;;;5.68;3.60;;;17.70;92.70;;;;;;5072710;28;20039;-73
2021/06/22 11:18:51;;;;;;;7.72;3.92;;;17.60;93.10;;;;;;5067837;28;20040;-73
2021/06/22 11:21:23;;;;;;;6.60;3.78;;;17.30;91.70;;;;;;5086590;28;20104;-74
2021/06/22 11:24:07;;;;;;;5.80;3.80;;;17.50;92.90;;;;;;5088966;28;20036;-74
2021/06/22 11:26:45;;;;;;;7.85;3.97;;;17.80;93.00;;;;;;5091848;28;20488;-74
2021/06/22 11:29:36;;;;;;;8.45;4.30;;;17.90;92.40;;;;;;5073445;28;20434;-73
2021/06/22 11:32:03;;;;;;;8.40;4.57;;;18.00;94.30;;;;;;5063955;28;20052;-77
2021/06/22 11:34:34;;;;;;;10.13;4.20;;;17.90;92.60;;;;;;5091548;28;20036;-77
2021/06/22 11:37:06;;;;;;;8.77;4.28;;;17.80;92.20;;;;;;5091860;28;20036;-77
2021/06/22 11:39:36;;;;;;;8.15;4.20;;;17.80;92.10;;;;;;5097629;28;20043;-77
2021/06/22 11:42:10;;;;;;;7.07;4.75;;;18.00;92.20;;;;;;5092579;28;20506;-77
2021/06/22 11:45:04;;;;;;;7.00;4.18;;;18.00;92.40;;;;;;5074823;28;20040;-77
2021/06/22 11:47:33;;;;;;;7.40;4.90;;;18.30;92.10;;;;;;5091060;28;20039;-77
2021/06/22 11:50:00;;;;;;;9.95;5.05;;;18.30;92.60;;;;;;5091524;28;20050;-77
2021/06/22 11:52:37;;;;;;;8.43;4.95;;;18.20;91.50;;;;;;5086549;28;20036;-77
2021/06/22 11:55:14;;;;;;;10.30;5.10;;;18.10;92.20;;;;;;5070436;28;20040;-77
2021/06/22 11:57:40;;;;;;;7.75;4.72;;;18.60;94.40;;;;;;5089501;28;20035;-77
2021/06/22 12:00:10;;;;;;;8.95;4.75;;;18.60;93.30;;;;;;5086724;28;20413;-76
2021/06/22 12:02:36;;;;;;;7.28;4.38;;;18.60;90.60;;;;;;5082637;28;20169;-76
2021/06/22 12:05:10;;;;;;;7.43;4.88;;;18.70;91.10;;;;;;5069900;28;20393;-76
2021/06/22 12:07:53;;;;;;;9.07;4.93;;;18.60;90.70;;;;;;5091299;28;20043;-76
2021/06/22 12:10:22;;;;;;;9.73;5.80;;;18.60;88.60;;;;;;5091173;28;20481;-76
2021/06/22 12:12:51;;;;;;;7.72;5.22;;;18.70;92.30;;;;;;5088824;28;20036;-76
2021/06/22 12:15:38;;;;;;;8.07;4.90;;;18.20;89.40;;;;;;5088344;28;20040;-77
2021/06/22 12:18:05;;;;;;;10.05;4.63;;;18.00;91.20;;;;;;5089992;28;20035;-76
2021/06/22 12:20:37;;;;;;;8.38;5.15;;;18.40;91.70;;;;;;5090462;28;20063;-76
2021/06/22 12:23:16;;;;;;;6.50;4.75;;;18.70;93.10;;;;;;5091045;28;20066;-76
2021/06/22 12:25:46;;;;;;;7.25;5.20;;;18.70;91.10;;;;;;5086327;28;20750;-76
2021/06/22 12:28:13;;;;;;;8.77;5.28;;;19.00;91.80;;;;;;5082634;28;20048;-76
2021/06/22 12:30:41;;;;;;;8.00;4.93;;;19.30;91.40;;;;;;5087133;28;20046;-76
2021/06/22 12:33:13;;;;;;;7.65;4.80;;;19.30;88.50;;;;;;5075236;28;20116;-76
2021/06/22 12:35:40;;;;;;;7.63;4.68;;;19.20;89.80;;;;;;5091061;28;20039;-76
2021/06/22 12:38:09;;;;;;;8.52;4.32;;;19.30;90.80;;;;;;5087573;28;20036;-76
2021/06/22 12:40:42;;;;;;;6.03;4.70;;;19.40;89.60;;;;;;5085751;28;20569;-76
2021/06/22 12:43:07;;;;;;;9.20;5.10;;;19.40;91.20;;;;;;5091061;28;20158;-76
2021/06/22 12:45:34;;;;;;;6.72;5.05;;;19.90;90.50;;;;;;5090509;28;20094;-76
2021/06/22 12:48:00;;;;;;;5.72;4.50;;;20.00;88.00;;;;;;5089891;28;20044;-76